METAR Data
IDs: Format: Raw Decoded Include TAF

Data at: 1131 UTC 30 Oct 2020

KSYN 301115Z AUTO 00000KT 10SM BKN065 BKN075 OVC110 M01/M03 A3020 RMK AO2 T10151027
KSYN 301055Z AUTO 00000KT 10SM SCT075 OVC110 M01/M03 A3020 RMK AO2 T10151027
KSYN 301035Z AUTO 00000KT 10SM SCT065 BKN075 OVC110 M01/M03 A3020 RMK AO2 T10081030
KSYN 301015Z AUTO 00000KT 10SM BKN065 OVC110 M01/M03 A3020 RMK AO2 T10081026
KSYN 300955Z AUTO 00000KT 10SM BKN065 OVC110 00/M03 A3019 RMK AO2 T10051031
KSYN 300935Z AUTO 00000KT 10SM SCT065 SCT090 OVC110 00/M03 A3018 RMK AO2 T10041028
KSYN 300915Z AUTO 00000KT 10SM BKN065 BKN075 OVC090 00/M03 A3018 RMK AO2 T10031027
KSYN 300855Z AUTO 00000KT 10SM OVC065 00/M02 A3019 RMK AO2 T10031025
KSYN 300835Z AUTO 00000KT 10SM OVC065 00/M02 A3020 RMK AO2 T10051022
KSYN 300815Z AUTO 00000KT 10SM OVC065 00/M02 A3019 RMK AO2 T10031025
KSYN 300755Z AUTO 00000KT 10SM OVC075 00/M03 A3019 RMK AO2 T10031030
KSYN 300735Z AUTO 00000KT 10SM OVC075 00/M03 A3019 RMK AO2 T10051030
KSYN 300715Z AUTO 00000KT 10SM OVC075 00/M03 A3019 RMK AO2 T10051030
KSYN 300655Z AUTO 00000KT 10SM OVC085 M01/M03 A3018 RMK AO2 T10061029
KSYN 300635Z AUTO 00000KT 10SM OVC085 M01/M03 A3018 RMK AO2 T10071030
KSYN 300615Z AUTO 00000KT 10SM SCT050 SCT055 OVC085 M01/M03 A3018 RMK AO2 T10081030
KSYN 300555Z AUTO 00000KT 10SM SCT050 BKN080 OVC120 M01/M03 A3017 RMK AO2 T10081030 10000 21015 400351015
KSYN 300535Z AUTO 00000KT 10SM BKN060 BKN070 OVC120 M01/M03 A3017 RMK AO2 T10081031
KSYN 300515Z AUTO 00000KT 10SM BKN060 OVC080 M01/M03 A3016 RMK AO2 T10091031
KSYN 300455Z AUTO 00000KT 10SM BKN090 OVC110 M01/M03 A3016 RMK AO2 T10101035
KSYN 300435Z AUTO 00000KT 10SM SCT090 BKN110 M01/M04 A3015 RMK AO2 T10101036
KSYN 300415Z AUTO 00000KT 10SM CLR M01/M03 A3015 RMK AO2 T10101032
KSYN 300355Z AUTO 00000KT 10SM CLR M01/M03 A3015 RMK AO2 T10071031
KSYN 300335Z AUTO 00000KT 10SM CLR M01/M03 A3014 RMK AO2 T10081035
KSYN 300315Z AUTO 20003KT 10SM CLR M01/M04 A3014 RMK AO2 T10061036
KSYN 300255Z AUTO 20003KT 10SM SCT080 SCT100 BKN120 00/M03 A3014 RMK AO2 T10051035
KSYN 300235Z AUTO 00000KT 10SM SCT080 BKN110 M01/M03 A3014 RMK AO2 T10061034
KSYN 300215Z AUTO 00000KT 10SM OVC110 00/M04 A3013 RMK AO2 T10051039
KSYN 300155Z AUTO 00000KT 10SM BKN110 M01/M03 A3013 RMK AO2 T10101034
KSYN 300135Z AUTO 00000KT 10SM SCT120 M01/M03 A3014 RMK AO2 T10091035
KSYN 300115Z AUTO 00000KT 10SM SCT120 M01/M04 A3013 RMK AO2 T10101036
KSYN 300055Z AUTO 29003KT 10SM CLR M01/M04 A3014 RMK AO2 T10081044
KSYN 300035Z AUTO 00000KT 10SM CLR M01/M04 A3014 RMK AO2 T10111043
KSYN 300015Z AUTO 31004KT 10SM CLR 00/M05 A3013 RMK AO2 T10051050
KSYN 292355Z AUTO 00000KT 10SM SCT033 00/M05 A3012 RMK AO2 T00001054 10017 21006
KSYN 292335Z AUTO 34003KT 10SM BKN033 00/M05 A3011 RMK AO2 T10031049
KSYN 292315Z AUTO 00000KT 10SM OVC033 01/M05 A3011 RMK AO2 T00061052
KSYN 292255Z AUTO 30004KT 10SM OVC033 01/M04 A3011 RMK AO2 T00091043
KSYN 292235Z AUTO 29004KT 10SM OVC033 01/M04 A3011 RMK AO2 T00131045
KSYN 292215Z AUTO 00000KT 10SM OVC033 02/M05 A3011 RMK AO2 T00151048
KSYN 292155Z AUTO 35004KT 10SM OVC033 02/M04 A3012 RMK AO2 T00151041
KSYN 292135Z AUTO 00000KT 10SM OVC033 02/M04 A3010 RMK AO2 T00151043
KSYN 292115Z AUTO 36004KT 10SM OVC035 02/M04 A3011 RMK AO2 T00161040
KSYN 292055Z AUTO 34003KT 10SM OVC033 02/M04 A3011 RMK AO2 T00161041
KSYN 292035Z AUTO 33003KT 10SM OVC033 02/M04 A3011 RMK AO2 T00171039
KSYN 292015Z AUTO 33004KT 10SM SCT027 OVC033 02/M04 A3011 RMK AO2 T00161039
KSYN 291955Z AUTO 33004KT 10SM SCT026 OVC031 02/M03 A3011 RMK AO2 T00161035
KSYN 291935Z AUTO 33005KT 10SM BKN025 OVC032 02/M03 A3012 RMK AO2 T00151034
KSYN 291915Z AUTO 34007KT 10SM SCT023 OVC032 02/M03 A3012 RMK AO2 T00161031
KSYN 291855Z AUTO 33008KT 10SM BKN025 OVC036 02/M03 A3012 RMK AO2 T00161030
KSYN 291835Z AUTO 33008KT 10SM BKN023 BKN028 OVC036 02/M03 A3013 RMK AO2 T00151031
KSYN 291815Z AUTO 33007KT 10SM OVC021 02/M03 A3013 RMK AO2 T00151030
KSYN 291755Z AUTO 35007KT 10SM OVC021 01/M03 A3013 RMK AO2 T00141030 10015 20005
KSYN 291735Z AUTO 36008KT 10SM OVC021 01/M03 A3013 RMK AO2 T00111031